Time;durP1;ratioP1;P1;durP2;ratioP2;P2;SDS_P1;SDS_P2;PMS_P1;PMS_P2;Temp;Humidity;BMP_temperature;BMP_pressure;BME280_temperature;BME280_humidity;BME280_pressure;Samples;Min_cycle;Max_cycle;Signal;HPM_P1;HPM_P2
2023/03/16 00:02:05;;;;;;;0.57;0.57;;;;;;;;;;5095281;27;20039;-62
2023/03/16 00:04:36;;;;;;;1.85;0.88;;;;;;;;;;5094101;28;20051;-65
2023/03/16 00:07:06;;;;;;;1.50;1.02;;;;;;;;;;5098423;28;20050;-64
2023/03/16 00:09:36;;;;;;;2.22;1.40;;;;;;;;;;5099148;27;20075;-63
2023/03/16 00:12:05;;;;;;;0.70;0.70;;;;;;;;;;5091677;27;20062;-64
2023/03/16 00:14:34;;;;;;;0.82;0.75;;;;;;;;;;5099611;27;20539;-62
2023/03/16 00:17:05;;;;;;;2.42;1.30;;;;;;;;;;5094628;28;20170;-63
2023/03/16 00:19:34;;;;;;;4.00;1.55;;;;;;;;;;5091821;27;20392;-67
2023/03/16 00:22:02;;;;;;;1.67;1.13;;;;;;;;;;5097528;27;20043;-65
2023/03/16 00:24:32;;;;;;;1.85;0.90;;;;;;;;;;5100745;28;20053;-65
2023/03/16 00:27:00;;;;;;;2.20;1.40;;;;;;;;;;5099221;28;20066;-62
2023/03/16 00:29:28;;;;;;;2.53;0.85;;;;;;;;;;5095806;28;20071;-62
2023/03/16 00:31:56;;;;;;;3.45;1.17;;;;;;;;;;5099086;28;20146;-63
2023/03/16 00:34:28;;;;;;;0.82;0.68;;;;;;;;;;5093751;28;20048;-62
2023/03/16 00:36:57;;;;;;;0.77;0.77;;;;;;;;;;5097876;28;20056;-63
2023/03/16 00:39:25;;;;;;;5.13;1.20;;;;;;;;;;5097814;27;20043;-63
2023/03/16 00:41:57;;;;;;;0.80;0.80;;;;;;;;;;5095500;28;20044;-64
2023/03/16 00:44:25;;;;;;;0.57;0.40;;;;;;;;;;5096910;28;20044;-62
2023/03/16 00:46:53;;;;;;;0.90;0.75;;;;;;;;;;5095197;28;20039;-63
2023/03/16 00:49:22;;;;;;;0.50;0.50;;;;;;;;;;5104610;28;20503;-62
2023/03/16 00:51:50;;;;;;;1.50;1.40;;;;;;;;;;5096295;27;20039;-62
2023/03/16 00:54:18;;;;;;;2.35;0.65;;;;;;;;;;5096353;28;20036;-64
2023/03/16 00:56:47;;;;;;;0.40;0.40;;;;;;;;;;5090588;28;20078;-66
2023/03/16 00:59:18;;;;;;;0.95;0.90;;;;;;;;;;5095916;28;20043;-62
2023/03/16 01:01:47;;;;;;;1.35;0.80;;;;;;;;;;5100602;27;20043;-63
2023/03/16 01:04:15;;;;;;;1.17;0.47;;;;;;;;;;5101408;28;20051;-62
2023/03/16 01:06:43;;;;;;;0.68;0.68;;;;;;;;;;5097535;28;20051;-63
2023/03/16 01:09:13;;;;;;;0.98;0.95;;;;;;;;;;5098189;28;20067;-62
2023/03/16 01:11:42;;;;;;;2.10;1.00;;;;;;;;;;5094535;28;20214;-62
2023/03/16 01:14:11;;;;;;;0.75;0.75;;;;;;;;;;5096578;28;20052;-67
2023/03/16 01:16:44;;;;;;;1.75;0.80;;;;;;;;;;5093353;28;20047;-62
2023/03/16 01:19:13;;;;;;;2.55;1.00;;;;;;;;;;5095055;28;20072;-62
2023/03/16 01:21:42;;;;;;;0.85;0.85;;;;;;;;;;5093019;28;20063;-66
2023/03/16 01:24:10;;;;;;;5.00;1.23;;;;;;;;;;5101939;28;20039;-62
2023/03/16 01:26:38;;;;;;;3.60;1.13;;;;;;;;;;5096631;28;20055;-62
2023/03/16 01:29:07;;;;;;;0.93;0.45;;;;;;;;;;5098804;28;20047;-67
2023/03/16 01:31:35;;;;;;;2.90;1.42;;;;;;;;;;5093709;28;20051;-62
2023/03/16 01:34:05;;;;;;;1.20;1.13;;;;;;;;;;5096896;28;20055;-67
2023/03/16 01:36:33;;;;;;;1.40;1.30;;;;;;;;;;5096894;28;20040;-62
2023/03/16 01:39:01;;;;;;;2.78;1.33;;;;;;;;;;5100303;28;20047;-62
2023/03/16 01:41:30;;;;;;;2.17;1.15;;;;;;;;;;5097415;28;20062;-62
2023/03/16 01:43:58;;;;;;;1.63;0.85;;;;;;;;;;5098322;28;20767;-62
2023/03/16 01:46:27;;;;;;;2.28;1.95;;;;;;;;;;5097924;28;20040;-62
2023/03/16 01:48:57;;;;;;;0.65;0.65;;;;;;;;;;5098207;28;20044;-66
2023/03/16 01:51:29;;;;;;;2.55;0.73;;;;;;;;;;5101343;27;20054;-67
2023/03/16 01:53:59;;;;;;;1.20;0.80;;;;;;;;;;5099318;27;20529;-62
2023/03/16 01:56:33;;;;;;;0.73;0.70;;;;;;;;;;5096503;28;20058;-62
2023/03/16 01:59:04;;;;;;;2.83;0.93;;;;;;;;;;5099944;27;20063;-64
2023/03/16 02:01:32;;;;;;;2.33;1.20;;;;;;;;;;5103222;27;20043;-63
2023/03/16 02:04:06;;;;;;;1.42;1.15;;;;;;;;;;5095575;27;20044;-63
2023/03/16 02:06:36;;;;;;;0.45;0.45;;;;;;;;;;5097783;27;20043;-62
2023/03/16 02:09:05;;;;;;;0.65;0.65;;;;;;;;;;5095285;28;20483;-64
2023/03/16 02:11:35;;;;;;;1.95;1.38;;;;;;;;;;5100612;27;20067;-62
2023/03/16 02:14:06;;;;;;;1.15;0.98;;;;;;;;;;5095469;28;20048;-62
2023/03/16 02:16:34;;;;;;;2.85;1.23;;;;;;;;;;5095010;28;20441;-61
2023/03/16 02:19:04;;;;;;;0.63;0.63;;;;;;;;;;5096184;27;20055;-62
2023/03/16 02:21:36;;;;;;;1.52;1.45;;;;;;;;;;5104714;27;20062;-62
2023/03/16 02:24:06;;;;;;;0.85;0.85;;;;;;;;;;5097946;27;20047;-66
2023/03/16 02:26:37;;;;;;;0.95;0.88;;;;;;;;;;5098902;27;20130;-64
2023/03/16 02:29:12;;;;;;;1.58;0.95;;;;;;;;;;5105131;27;20044;-64
2023/03/16 02:31:42;;;;;;;1.80;0.90;;;;;;;;;;5102285;27;20059;-64
2023/03/16 02:34:12;;;;;;;0.82;0.52;;;;;;;;;;5099376;28;20411;-64
2023/03/16 02:36:41;;;;;;;0.73;0.73;;;;;;;;;;5100352;28;20056;-63
2023/03/16 02:39:09;;;;;;;1.70;0.82;;;;;;;;;;5096195;27;20145;-65
2023/03/16 02:41:38;;;;;;;1.00;0.82;;;;;;;;;;5102229;27;20047;-67
2023/03/16 02:44:13;;;;;;;1.25;0.52;;;;;;;;;;5098736;27;20046;-64
2023/03/16 02:46:43;;;;;;;2.45;0.93;;;;;;;;;;5095996;28;20130;-63
2023/03/16 02:49:15;;;;;;;3.58;1.45;;;;;;;;;;5094909;28;20098;-64
2023/03/16 02:51:44;;;;;;;1.25;1.15;;;;;;;;;;5100354;28;20052;-67
2023/03/16 02:54:12;;;;;;;0.80;0.75;;;;;;;;;;5097720;27;20419;-68
2023/03/16 02:56:40;;;;;;;1.45;1.17;;;;;;;;;;5098588;28;20059;-68
2023/03/16 02:59:09;;;;;;;1.27;1.17;;;;;;;;;;5099023;28;20051;-64
2023/03/16 03:01:37;;;;;;;2.40;1.65;;;;;;;;;;5100861;27;20589;-64
2023/03/16 03:04:07;;;;;;;1.95;0.65;;;;;;;;;;5094162;27;20062;-67
2023/03/16 03:06:35;;;;;;;1.13;1.00;;;;;;;;;;5098121;28;20059;-69
2023/03/16 03:09:04;;;;;;;4.93;1.48;;;;;;;;;;5101973;27;20050;-65
2023/03/16 03:11:32;;;;;;;1.88;1.63;;;;;;;;;;5095266;27;20052;-64
2023/03/16 03:14:01;;;;;;;3.38;1.00;;;;;;;;;;5092781;27;20040;-69
2023/03/16 03:16:29;;;;;;;4.40;0.85;;;;;;;;;;5101570;28;20043;-65
2023/03/16 03:18:57;;;;;;;1.80;1.45;;;;;;;;;;5099736;28;20150;-65
2023/03/16 03:21:28;;;;;;;0.63;0.63;;;;;;;;;;5098708;28;20055;-64
2023/03/16 03:23:56;;;;;;;0.75;0.73;;;;;;;;;;5096735;27;20054;-69
2023/03/16 03:26:24;;;;;;;0.95;0.30;;;;;;;;;;5097044;27;20043;-67
2023/03/16 03:28:53;;;;;;;0.50;0.50;;;;;;;;;;5095437;28;20044;-65
2023/03/16 03:31:22;;;;;;;0.43;0.43;;;;;;;;;;5095946;27;20039;-64
2023/03/16 03:33:52;;;;;;;2.25;0.55;;;;;;;;;;5098975;27;20118;-63
2023/03/16 03:36:21;;;;;;;1.75;0.82;;;;;;;;;;5095757;27;20388;-63
2023/03/16 03:38:53;;;;;;;1.27;0.55;;;;;;;;;;5093773;28;20051;-68
2023/03/16 03:41:22;;;;;;;4.53;1.10;;;;;;;;;;5100384;27;20051;-64
2023/03/16 03:43:50;;;;;;;1.40;1.25;;;;;;;;;;5096190;27;20517;-64
2023/03/16 03:46:18;;;;;;;1.63;1.23;;;;;;;;;;5097957;28;20048;-64
2023/03/16 03:48:47;;;;;;;4.60;0.70;;;;;;;;;;5101695;27;20874;-64
2023/03/16 03:51:15;;;;;;;2.08;1.85;;;;;;;;;;5096175;27;20172;-66
2023/03/16 03:53:43;;;;;;;1.52;0.98;;;;;;;;;;5095525;27;20499;-64
2023/03/16 03:56:13;;;;;;;2.15;1.50;;;;;;;;;;5097685;27;20039;-64
2023/03/16 03:58:41;;;;;;;1.40;1.30;;;;;;;;;;5101465;27;20047;-63
2023/03/16 04:01:09;;;;;;;1.58;1.33;;;;;;;;;;5095633;28;20066;-64
2023/03/16 04:03:38;;;;;;;0.70;0.70;;;;;;;;;;5101106;27;20044;-62
2023/03/16 04:06:07;;;;;;;1.90;0.88;;;;;;;;;;5095954;28;20048;-66
2023/03/16 04:08:35;;;;;;;0.82;0.80;;;;;;;;;;5096409;28;20043;-63
2023/03/16 04:11:03;;;;;;;0.43;0.43;;;;;;;;;;5099149;27;20052;-62
2023/03/16 04:13:33;;;;;;;2.40;1.00;;;;;;;;;;5095369;28;20055;-64
2023/03/16 04:16:02;;;;;;;1.15;1.05;;;;;;;;;;5097807;28;20051;-63
2023/03/16 04:18:37;;;;;;;3.90;2.65;;;;;;;;;;5101903;28;20052;-62
2023/03/16 04:21:06;;;;;;;2.35;1.13;;;;;;;;;;5098798;27;20140;-62
2023/03/16 04:23:35;;;;;;;0.88;0.80;;;;;;;;;;5095163;28;20052;-67
2023/03/16 04:26:04;;;;;;;1.48;0.88;;;;;;;;;;5101634;27;20801;-62
2023/03/16 04:28:33;;;;;;;1.48;1.02;;;;;;;;;;5074382;28;20064;-63
2023/03/16 04:31:03;;;;;;;0.43;0.43;;;;;;;;;;5075986;28;20534;-62
2023/03/16 04:33:32;;;;;;;3.08;1.20;;;;;;;;;;5072208;28;20056;-63
2023/03/16 04:36:01;;;;;;;2.08;0.95;;;;;;;;;;5076323;28;20385;-62
2023/03/16 04:38:29;;;;;;;1.42;0.90;;;;;;;;;;5080880;28;20492;-61
2023/03/16 04:40:58;;;;;;;1.27;1.00;;;;;;;;;;5077136;28;20473;-63
2023/03/16 04:43:26;;;;;;;1.67;0.95;;;;;;;;;;5078877;28;20123;-63
2023/03/16 04:45:56;;;;;;;2.30;1.10;;;;;;;;;;5075571;28;20517;-67
2023/03/16 04:48:24;;;;;;;1.77;1.55;;;;;;;;;;5079924;28;20048;-63
2023/03/16 04:50:52;;;;;;;2.88;0.95;;;;;;;;;;5077642;28;20044;-61
2023/03/16 04:53:21;;;;;;;0.95;0.90;;;;;;;;;;5074823;28;20044;-67
2023/03/16 04:55:50;;;;;;;0.65;0.65;;;;;;;;;;5077864;28;20052;-62
2023/03/16 04:58:18;;;;;;;1.63;1.05;;;;;;;;;;5071307;28;20040;-66
2023/03/16 05:00:47;;;;;;;4.15;0.85;;;;;;;;;;5074772;28;20480;-62
2023/03/16 05:03:16;;;;;;;1.25;0.95;;;;;;;;;;5073181;28;20509;-62
2023/03/16 05:05:46;;;;;;;0.45;0.45;;;;;;;;;;5080012;28;20040;-62
2023/03/16 05:08:15;;;;;;;1.90;0.52;;;;;;;;;;5078317;28;20731;-62
2023/03/16 05:10:45;;;;;;;1.90;0.80;;;;;;;;;;5073175;28;20062;-61
2023/03/16 05:13:13;;;;;;;1.35;1.10;;;;;;;;;;5071248;28;20420;-63
2023/03/16 05:15:41;;;;;;;4.93;1.05;;;;;;;;;;5073878;28;20048;-61
2023/03/16 05:18:10;;;;;;;4.60;0.75;;;;;;;;;;5072655;28;20040;-64
2023/03/16 05:20:41;;;;;;;2.55;1.55;;;;;;;;;;5075239;28;20054;-63
2023/03/16 05:23:10;;;;;;;0.98;0.90;;;;;;;;;;5082287;28;20378;-67
2023/03/16 05:25:39;;;;;;;0.47;0.47;;;;;;;;;;5081169;28;20052;-62
2023/03/16 05:28:07;;;;;;;0.60;0.60;;;;;;;;;;5081145;28;20084;-62
2023/03/16 05:30:36;;;;;;;4.00;1.08;;;;;;;;;;5080426;28;20047;-61
2023/03/16 05:33:05;;;;;;;4.20;0.43;;;;;;;;;;5083363;28;20422;-62
2023/03/16 05:35:33;;;;;;;1.58;1.48;;;;;;;;;;5082694;28;20206;-66
2023/03/16 05:38:03;;;;;;;0.82;0.82;;;;;;;;;;5082882;28;20147;-62
2023/03/16 05:40:31;;;;;;;7.47;1.23;;;;;;;;;;5080594;28;20048;-66
2023/03/16 05:43:00;;;;;;;0.80;0.63;;;;;;;;;;5080881;28;20060;-62
2023/03/16 05:45:29;;;;;;;1.02;0.93;;;;;;;;;;5079506;28;20409;-64
2023/03/16 05:47:57;;;;;;;1.65;0.82;;;;;;;;;;5097944;28;20039;-64
2023/03/16 05:50:27;;;;;;;3.30;1.38;;;;;;;;;;5101479;28;20047;-63
2023/03/16 05:52:55;;;;;;;0.60;0.60;;;;;;;;;;5096723;27;20541;-63
2023/03/16 05:55:25;;;;;;;0.65;0.30;;;;;;;;;;5093656;27;20056;-67
2023/03/16 05:57:53;;;;;;;1.45;0.63;;;;;;;;;;5099481;27;20099;-64
2023/03/16 06:00:24;;;;;;;0.68;0.68;;;;;;;;;;5100080;28;20044;-63
2023/03/16 06:02:52;;;;;;;0.57;0.57;;;;;;;;;;5103958;28;20101;-63
2023/03/16 06:05:23;;;;;;;1.88;1.35;;;;;;;;;;5107196;28;20103;-64
2023/03/16 06:07:52;;;;;;;1.35;1.23;;;;;;;;;;5098130;27;20055;-62
2023/03/16 06:10:20;;;;;;;0.40;0.40;;;;;;;;;;5107903;27;20512;-62
2023/03/16 06:12:50;;;;;;;3.85;1.73;;;;;;;;;;5097465;27;20634;-64
2023/03/16 06:15:18;;;;;;;2.35;1.92;;;;;;;;;;5104480;27;20047;-63
2023/03/16 06:17:47;;;;;;;2.55;1.27;;;;;;;;;;5097495;27;20483;-64
2023/03/16 06:20:16;;;;;;;1.27;1.00;;;;;;;;;;5098870;27;20093;-63
2023/03/16 06:22:45;;;;;;;4.85;1.95;;;;;;;;;;5100391;27;20048;-63
2023/03/16 06:25:13;;;;;;;0.63;0.63;;;;;;;;;;5100900;27;20128;-64
2023/03/16 06:27:42;;;;;;;0.25;0.22;;;;;;;;;;5102285;27;20085;-63
2023/03/16 06:30:13;;;;;;;1.23;0.93;;;;;;;;;;5100635;28;20484;-63
2023/03/16 06:32:42;;;;;;;0.65;0.65;;;;;;;;;;5104195;28;20052;-63
2023/03/16 06:35:11;;;;;;;1.92;0.73;;;;;;;;;;5102254;28;20190;-64
2023/03/16 06:37:39;;;;;;;1.02;0.77;;;;;;;;;;5102835;28;20043;-63
2023/03/16 06:40:08;;;;;;;0.63;0.60;;;;;;;;;;5099378;28;20047;-66
2023/03/16 06:42:36;;;;;;;0.65;0.52;;;;;;;;;;5097005;27;20048;-65
2023/03/16 06:45:05;;;;;;;0.98;0.93;;;;;;;;;;5098852;28;20400;-64
2023/03/16 06:47:35;;;;;;;0.80;0.80;;;;;;;;;;5094277;27;20066;-65
2023/03/16 06:50:04;;;;;;;1.45;1.08;;;;;;;;;;5097936;28;20047;-63
2023/03/16 06:52:32;;;;;;;3.47;1.88;;;;;;;;;;5103883;28;20047;-63
2023/03/16 06:55:01;;;;;;;0.80;0.77;;;;;;;;;;5102267;28;20043;-67
2023/03/16 06:57:30;;;;;;;2.85;0.85;;;;;;;;;;5095164;27;20130;-65
2023/03/16 06:59:58;;;;;;;0.73;0.50;;;;;;;;;;5098350;28;20044;-63
2023/03/16 07:02:26;;;;;;;1.55;0.85;;;;;;;;;;5101442;28;20476;-63
2023/03/16 07:04:56;;;;;;;1.33;0.98;;;;;;;;;;5098522;28;20047;-64
2023/03/16 07:07:26;;;;;;;3.55;3.20;;;;;;;;;;5099344;28;20478;-63
2023/03/16 07:09:54;;;;;;;0.90;0.68;;;;;;;;;;5100438;28;20077;-67
2023/03/16 07:12:22;;;;;;;2.10;1.00;;;;;;;;;;5098072;27;20392;-62
2023/03/16 07:14:51;;;;;;;2.63;1.75;;;;;;;;;;5101236;28;20503;-63
2023/03/16 07:17:21;;;;;;;0.93;0.73;;;;;;;;;;5096533;28;20124;-64
2023/03/16 07:19:50;;;;;;;4.63;1.42;;;;;;;;;;5102358;28;20450;-64
2023/03/16 07:22:20;;;;;;;1.27;1.17;;;;;;;;;;5098719;28;20048;-67
2023/03/16 07:24:54;;;;;;;5.20;1.20;;;;;;;;;;5100678;28;20117;-63
2023/03/16 07:27:23;;;;;;;0.60;0.60;;;;;;;;;;5097728;27;20043;-65
2023/03/16 07:29:51;;;;;;;0.90;0.90;;;;;;;;;;5097918;28;20285;-63
2023/03/16 07:32:20;;;;;;;10.63;2.55;;;;;;;;;;5100301;28;20043;-64
2023/03/16 07:34:48;;;;;;;1.05;0.93;;;;;;;;;;5098429;28;20035;-62
2023/03/16 07:37:17;;;;;;;2.20;1.65;;;;;;;;;;5096792;28;20060;-65
2023/03/16 07:39:53;;;;;;;3.50;1.08;;;;;;;;;;5098656;27;20185;-64
2023/03/16 07:42:22;;;;;;;3.13;1.88;;;;;;;;;;5099500;27;20377;-62
2023/03/16 07:44:51;;;;;;;2.25;1.33;;;;;;;;;;5101450;28;20069;-63
2023/03/16 07:47:19;;;;;;;3.30;2.22;;;;;;;;;;5099639;28;20480;-67
2023/03/16 07:49:48;;;;;;;5.80;1.42;;;;;;;;;;5099396;28;20420;-64
2023/03/16 07:52:16;;;;;;;1.77;0.65;;;;;;;;;;5095937;28;20060;-68
2023/03/16 07:54:45;;;;;;;1.50;1.30;;;;;;;;;;5098271;28;20462;-63
2023/03/16 07:57:15;;;;;;;0.50;0.50;;;;;;;;;;5094919;27;20048;-63
2023/03/16 07:59:43;;;;;;;1.65;1.27;;;;;;;;;;5096359;28;20051;-67
2023/03/16 08:02:13;;;;;;;5.07;1.73;;;;;;;;;;5102808;28;20043;-65
2023/03/16 08:04:42;;;;;;;1.45;1.35;;;;;;;;;;5097096;28;20370;-63
2023/03/16 08:07:10;;;;;;;1.67;1.40;;;;;;;;;;5104819;28;20071;-63
2023/03/16 08:09:39;;;;;;;3.13;0.75;;;;;;;;;;5094881;28;20055;-65
2023/03/16 08:12:08;;;;;;;2.67;0.68;;;;;;;;;;5097777;27;20055;-64
2023/03/16 08:14:38;;;;;;;2.55;1.00;;;;;;;;;;5098950;28;20464;-65
2023/03/16 08:17:07;;;;;;;4.65;1.95;;;;;;;;;;5103122;28;20412;-64
2023/03/16 08:19:35;;;;;;;3.00;1.58;;;;;;;;;;5100374;28;20432;-66
2023/03/16 08:22:04;;;;;;;1.92;1.25;;;;;;;;;;5094979;28;20141;-63
2023/03/16 08:24:33;;;;;;;0.85;0.68;;;;;;;;;;5098599;28;20059;-63
2023/03/16 08:27:02;;;;;;;3.90;0.85;;;;;;;;;;5099147;28;20137;-69
2023/03/16 08:29:33;;;;;;;6.95;2.33;;;;;;;;;;5092604;27;20165;-64
2023/03/16 08:32:03;;;;;;;2.65;0.98;;;;;;;;;;5096763;28;20112;-64
2023/03/16 08:34:31;;;;;;;4.85;2.33;;;;;;;;;;5096448;28;20040;-63
2023/03/16 08:37:00;;;;;;;6.03;1.77;;;;;;;;;;5092976;28;20131;-68
2023/03/16 08:39:29;;;;;;;2.95;1.52;;;;;;;;;;5103434;28;20047;-64
2023/03/16 08:41:57;;;;;;;1.95;1.67;;;;;;;;;;5098144;27;20053;-64
2023/03/16 08:44:26;;;;;;;2.08;1.23;;;;;;;;;;5096091;28;20900;-64
2023/03/16 08:46:54;;;;;;;3.42;1.45;;;;;;;;;;5098371;28;20065;-63
2023/03/16 08:49:24;;;;;;;2.45;1.27;;;;;;;;;;5101801;28;20063;-63
2023/03/16 08:51:53;;;;;;;1.75;1.27;;;;;;;;;;5097127;27;20051;-67
2023/03/16 08:54:21;;;;;;;2.65;1.08;;;;;;;;;;5103111;27;20460;-63
2023/03/16 08:56:50;;;;;;;3.55;1.85;;;;;;;;;;5094554;28;20496;-64
2023/03/16 08:59:19;;;;;;;3.42;2.45;;;;;;;;;;5093895;28;20036;-63
2023/03/16 09:01:57;;;;;;;2.05;1.85;;;;;;;;;;5094461;28;20059;-64
2023/03/16 09:04:28;;;;;;;6.38;2.40;;;;;;;;;;5092582;28;20097;-67
2023/03/16 09:06:57;;;;;;;6.53;1.95;;;;;;;;;;5097595;28;20043;-65
2023/03/16 09:09:36;;;;;;;3.30;1.58;;;;;;;;;;5096461;28;20070;-63
2023/03/16 09:12:05;;;;;;;2.78;1.77;;;;;;;;;;5096566;27;20479;-63
2023/03/16 09:14:36;;;;;;;3.08;1.52;;;;;;;;;;5090296;28;20132;-63
2023/03/16 09:17:06;;;;;;;2.47;1.67;;;;;;;;;;5093936;28;20043;-63
2023/03/16 09:19:36;;;;;;;9.23;2.80;;;;;;;;;;5094159;28;20052;-63
2023/03/16 09:22:25;;;;;;;2.40;1.63;;;;;;;;;;5092933;28;20051;-66
2023/03/16 09:24:53;;;;;;;3.20;1.25;;;;;;;;;;5092275;28;20056;-68
2023/03/16 09:27:22;;;;;;;4.50;1.05;;;;;;;;;;5090510;28;20109;-64
2023/03/16 09:29:54;;;;;;;3.53;1.88;;;;;;;;;;5098823;28;20534;-66
2023/03/16 09:32:23;;;;;;;1.90;1.23;;;;;;;;;;5090173;28;20040;-65
2023/03/16 09:34:53;;;;;;;9.60;2.88;;;;;;;;;;5090539;28;20048;-65
2023/03/16 09:37:22;;;;;;;2.33;0.70;;;;;;;;;;5092308;28;20044;-69
2023/03/16 09:39:51;;;;;;;4.03;3.03;;;;;;;;;;5095597;28;20054;-63
2023/03/16 09:42:28;;;;;;;1.58;1.33;;;;;;;;;;5093841;28;20102;-63
2023/03/16 09:45:04;;;;;;;3.45;1.58;;;;;;;;;;5094964;28;21345;-64
2023/03/16 09:47:34;;;;;;;3.63;2.15;;;;;;;;;;5094263;28;20607;-63
2023/03/16 09:50:07;;;;;;;3.42;1.67;;;;;;;;;;5091818;28;20036;-65
2023/03/16 09:52:39;;;;;;;3.97;1.40;;;;;;;;;;5093077;28;20079;-66
2023/03/16 09:55:13;;;;;;;1.38;0.90;;;;;;;;;;5095948;28;20052;-63
2023/03/16 10:07:02;;;;;;;4.10;2.72;;;;;;;;;;5092052;28;20179;-63
2023/03/16 10:09:33;;;;;;;3.00;1.90;;;;;;;;;;5100240;28;20039;-66
2023/03/16 10:12:03;;;;;;;4.72;3.20;;;;;;;;;;5094667;28;20044;-62
2023/03/16 10:14:34;;;;;;;4.57;2.03;;;;;;;;;;5100520;28;20116;-64
2023/03/16 10:17:07;;;;;;;5.55;2.13;;;;;;;;;;5103226;28;20471;-62
2023/03/16 10:19:40;;;;;;;8.88;2.33;;;;;;;;;;5100216;28;20055;-65
2023/03/16 10:22:16;;;;;;;3.42;1.70;;;;;;;;;;5102131;27;20043;-65
2023/03/16 10:24:49;;;;;;;4.07;1.52;;;;;;;;;;5099252;28;20101;-65
2023/03/16 10:27:20;;;;;;;6.05;2.25;;;;;;;;;;5102626;27;20150;-65
2023/03/16 10:29:49;;;;;;;3.67;2.55;;;;;;;;;;5099843;27;20488;-65
2023/03/16 10:32:18;;;;;;;2.40;1.90;;;;;;;;;;5100762;28;20039;-65
2023/03/16 10:34:49;;;;;;;4.40;2.20;;;;;;;;;;5103486;28;20052;-66
2023/03/16 10:37:20;;;;;;;3.42;1.45;;;;;;;;;;5099218;28;20877;-65
2023/03/16 10:39:49;;;;;;;2.83;2.17;;;;;;;;;;5102443;28;20044;-64
2023/03/16 10:42:19;;;;;;;1.98;1.33;;;;;;;;;;5099945;27;20047;-65
2023/03/16 10:44:48;;;;;;;2.22;1.70;;;;;;;;;;5098411;28;20138;-65
2023/03/16 10:47:18;;;;;;;2.08;1.60;;;;;;;;;;5101236;28;20055;-65
2023/03/16 10:49:50;;;;;;;3.22;1.50;;;;;;;;;;5098000;28;20420;-68
2023/03/16 10:52:23;;;;;;;3.92;2.03;;;;;;;;;;5094429;28;20090;-65
2023/03/16 10:54:53;;;;;;;2.92;1.85;;;;;;;;;;5094775;28;20089;-66
2023/03/16 10:57:25;;;;;;;4.35;1.65;;;;;;;;;;5097493;27;20548;-65
2023/03/16 10:59:55;;;;;;;5.80;2.55;;;;;;;;;;5098198;28;20093;-65
2023/03/16 11:02:26;;;;;;;3.60;2.28;;;;;;;;;;5097625;28;20043;-66
2023/03/16 11:04:56;;;;;;;4.25;1.73;;;;;;;;;;5098460;27;20043;-68
2023/03/16 11:07:26;;;;;;;2.92;1.95;;;;;;;;;;5095674;28;20043;-65
2023/03/16 11:09:57;;;;;;;6.18;1.80;;;;;;;;;;5100807;28;20047;-64
2023/03/16 11:12:27;;;;;;;2.53;1.88;;;;;;;;;;5093177;28;20220;-65
2023/03/16 11:15:02;;;;;;;2.67;1.95;;;;;;;;;;5095477;28;20055;-64
2023/03/16 11:17:37;;;;;;;6.18;2.38;;;;;;;;;;5098669;27;20055;-65
2023/03/16 11:20:11;;;;;;;2.72;1.23;;;;;;;;;;5093937;28;20058;-66
2023/03/16 11:22:41;;;;;;;2.53;1.55;;;;;;;;;;5094227;27;20055;-66
2023/03/16 11:25:13;;;;;;;1.08;0.88;;;;;;;;;;5097015;28;20340;-67
2023/03/16 11:27:43;;;;;;;4.30;2.05;;;;;;;;;;5092136;28;20044;-65
2023/03/16 11:30:16;;;;;;;10.10;1.92;;;;;;;;;;5098777;28;20052;-65
2023/03/16 11:32:47;;;;;;;4.03;1.75;;;;;;;;;;5094996;28;20079;-65
2023/03/16 11:35:18;;;;;;;4.95;1.30;;;;;;;;;;5097888;28;20048;-65
2023/03/16 11:37:56;;;;;;;3.35;1.52;;;;;;;;;;5100839;28;20514;-66
2023/03/16 11:40:37;;;;;;;4.13;1.67;;;;;;;;;;5097819;28;20439;-66
2023/03/16 11:43:09;;;;;;;4.82;1.38;;;;;;;;;;5093131;28;20062;-65
2023/03/16 11:45:42;;;;;;;2.58;0.73;;;;;;;;;;5090522;28;20067;-65
2023/03/16 11:48:18;;;;;;;4.07;1.73;;;;;;;;;;5097672;28;20500;-66
2023/03/16 11:50:54;;;;;;;14.05;1.95;;;;;;;;;;5097603;28;20043;-66
2023/03/16 11:53:29;;;;;;;2.33;1.30;;;;;;;;;;5098831;28;20412;-65
2023/03/16 11:56:02;;;;;;;3.47;1.75;;;;;;;;;;5089862;28;20040;-66
2023/03/16 11:58:37;;;;;;;2.40;1.00;;;;;;;;;;5099343;28;20047;-65
2023/03/16 12:01:09;;;;;;;2.40;1.00;;;;;;;;;;5091899;27;20147;-65
2023/03/16 12:03:43;;;;;;;1.67;1.10;;;;;;;;;;5093899;28;20055;-65
2023/03/16 12:06:20;;;;;;;4.43;1.23;;;;;;;;;;5089871;27;20056;-66
2023/03/16 12:09:03;;;;;;;2.15;1.10;;;;;;;;;;5070280;28;20389;-66
2023/03/16 12:11:35;;;;;;;2.60;1.02;;;;;;;;;;5075141;28;20138;-66
2023/03/16 12:14:09;;;;;;;3.28;1.35;;;;;;;;;;5074938;28;20151;-66
2023/03/16 12:16:42;;;;;;;2.70;1.05;;;;;;;;;;5071620;28;20070;-67
2023/03/16 12:19:20;;;;;;;1.77;1.00;;;;;;;;;;5072798;28;20056;-65
2023/03/16 12:21:53;;;;;;;2.88;1.30;;;;;;;;;;5077802;28;20134;-66
2023/03/16 12:24:25;;;;;;;1.25;1.10;;;;;;;;;;5076511;28;20085;-66
2023/03/16 12:26:54;;;;;;;3.67;1.00;;;;;;;;;;5074403;28;20101;-66
2023/03/16 12:29:28;;;;;;;4.00;1.05;;;;;;;;;;5076713;28;20040;-66
2023/03/16 12:32:02;;;;;;;3.55;1.10;;;;;;;;;;5074928;28;20039;-66
2023/03/16 12:34:34;;;;;;;3.22;2.13;;;;;;;;;;5076468;28;20109;-66
2023/03/16 12:37:11;;;;;;;3.33;1.13;;;;;;;;;;5071027;28;20071;-66
2023/03/16 12:39:50;;;;;;;0.77;0.60;;;;;;;;;;5077060;28;20051;-68
2023/03/16 12:42:28;;;;;;;2.00;0.85;;;;;;;;;;5072688;28;20489;-66
2023/03/16 12:44:57;;;;;;;2.35;1.00;;;;;;;;;;5076120;28;20044;-67
2023/03/16 12:47:31;;;;;;;2.38;0.90;;;;;;;;;;5072169;28;20125;-66
2023/03/16 12:50:04;;;;;;;3.55;1.35;;;;;;;;;;5076405;28;20051;-66
2023/03/16 12:52:40;;;;;;;8.50;1.08;;;;;;;;;;5074927;28;20067;-66
2023/03/16 12:55:13;;;;;;;3.00;0.90;;;;;;;;;;5077386;28;20052;-66
2023/03/16 12:57:43;;;;;;;3.63;0.82;;;;;;;;;;5075283;28;20082;-67
2023/03/16 13:00:13;;;;;;;0.95;0.70;;;;;;;;;;5073243;28;20151;-65
2023/03/16 13:02:44;;;;;;;1.92;0.77;;;;;;;;;;5077053;28;20040;-66
2023/03/16 13:05:14;;;;;;;2.35;0.88;;;;;;;;;;5074224;28;20055;-66
2023/03/16 13:07:50;;;;;;;1.48;1.10;;;;;;;;;;5068429;28;20102;-66
2023/03/16 13:10:20;;;;;;;3.40;1.10;;;;;;;;;;5072590;28;20436;-65
2023/03/16 13:12:50;;;;;;;2.72;1.73;;;;;;;;;;5074851;28;20071;-66
2023/03/16 13:15:30;;;;;;;2.05;1.42;;;;;;;;;;5068693;28;20142;-66
2023/03/16 13:18:06;;;;;;;2.33;0.70;;;;;;;;;;5085819;28;20454;-68
2023/03/16 13:20:35;;;;;;;1.63;0.70;;;;;;;;;;5091039;28;20550;-66
2023/03/16 13:23:09;;;;;;;1.45;0.63;;;;;;;;;;5090978;28;20047;-67
2023/03/16 13:25:43;;;;;;;1.23;0.82;;;;;;;;;;5091007;28;20055;-68
2023/03/16 13:28:13;;;;;;;0.65;0.40;;;;;;;;;;5074849;28;20063;-67
2023/03/16 13:30:45;;;;;;;0.70;0.57;;;;;;;;;;5072219;28;20049;-66
2023/03/16 13:33:19;;;;;;;0.88;0.60;;;;;;;;;;5074350;28;20542;-66
2023/03/16 13:35:49;;;;;;;1.80;1.10;;;;;;;;;;5071358;28;20460;-66
2023/03/16 13:38:19;;;;;;;1.23;0.60;;;;;;;;;;5071277;28;20444;-66
2023/03/16 13:40:50;;;;;;;0.85;0.40;;;;;;;;;;5073024;28;20048;-67
2023/03/16 13:43:20;;;;;;;1.42;0.82;;;;;;;;;;5080374;28;20153;-65
2023/03/16 13:45:49;;;;;;;2.40;1.00;;;;;;;;;;5079470;28;20501;-68
2023/03/16 13:48:18;;;;;;;8.38;1.52;;;;;;;;;;5082244;28;20040;-66
2023/03/16 13:50:47;;;;;;;1.02;0.60;;;;;;;;;;5081178;28;20048;-67
2023/03/16 13:53:17;;;;;;;0.88;0.70;;;;;;;;;;5079486;28;20070;-67
2023/03/16 13:55:46;;;;;;;0.75;0.40;;;;;;;;;;5073752;28;21235;-68
2023/03/16 13:58:20;;;;;;;1.20;0.68;;;;;;;;;;5099571;27;20040;-67
2023/03/16 14:00:49;;;;;;;0.90;0.52;;;;;;;;;;5100734;28;20067;-68
2023/03/16 14:03:20;;;;;;;1.48;0.90;;;;;;;;;;5100617;28;20058;-66
2023/03/16 14:05:49;;;;;;;4.32;0.93;;;;;;;;;;5099185;27;20048;-67
2023/03/16 14:08:18;;;;;;;0.98;0.52;;;;;;;;;;5096558;27;20040;-67
2023/03/16 14:10:47;;;;;;;0.73;0.50;;;;;;;;;;5102034;27;20048;-68
2023/03/16 14:13:34;;;;;;;1.65;0.60;;;;;;;;;;5097511;27;20071;-67
2023/03/16 14:16:04;;;;;;;3.95;0.63;;;;;;;;;;5102772;28;20051;-67
2023/03/16 14:18:36;;;;;;;1.38;0.47;;;;;;;;;;5067909;28;20088;-67
2023/03/16 14:21:08;;;;;;;2.20;0.88;;;;;;;;;;5076435;28;20048;-68
2023/03/16 14:23:37;;;;;;;1.13;0.63;;;;;;;;;;5074495;28;20656;-67
2023/03/16 14:26:06;;;;;;;0.93;0.70;;;;;;;;;;5075238;28;20089;-66
2023/03/16 14:28:36;;;;;;;0.57;0.57;;;;;;;;;;5075892;28;20139;-67
2023/03/16 14:31:06;;;;;;;2.00;0.77;;;;;;;;;;5079705;28;20046;-67
2023/03/16 14:33:38;;;;;;;0.93;0.60;;;;;;;;;;5080610;28;20040;-67
2023/03/16 14:36:11;;;;;;;1.20;0.88;;;;;;;;;;5077446;28;20047;-67
2023/03/16 14:38:40;;;;;;;3.58;1.10;;;;;;;;;;5077857;28;20052;-67
2023/03/16 14:41:17;;;;;;;2.10;1.10;;;;;;;;;;5078050;28;20135;-67
2023/03/16 14:43:48;;;;;;;1.13;0.55;;;;;;;;;;5075947;28;20424;-66
2023/03/16 14:46:20;;;;;;;1.42;0.55;;;;;;;;;;5080838;28;20460;-66
2023/03/16 14:48:49;;;;;;;0.60;0.43;;;;;;;;;;5100379;28;20043;-67
2023/03/16 14:51:18;;;;;;;0.80;0.80;;;;;;;;;;5096382;28;20180;-67
2023/03/16 14:53:46;;;;;;;6.32;0.85;;;;;;;;;;5096640;28;20703;-66
2023/03/16 14:56:15;;;;;;;0.65;0.52;;;;;;;;;;5094443;28;20043;-67
2023/03/16 14:58:43;;;;;;;0.65;0.35;;;;;;;;;;5099235;28;20472;-66
2023/03/16 15:01:16;;;;;;;0.50;0.50;;;;;;;;;;5098107;27;20063;-66
2023/03/16 15:03:46;;;;;;;1.65;0.65;;;;;;;;;;5100107;27;20487;-68
2023/03/16 15:06:15;;;;;;;1.58;1.38;;;;;;;;;;5096438;27;20035;-66
2023/03/16 15:08:45;;;;;;;1.95;0.70;;;;;;;;;;5093608;28;20117;-68
2023/03/16 15:11:20;;;;;;;1.15;0.73;;;;;;;;;;5093899;27;20047;-68